Aeroporto :
LOGIN :

Iscrizione | Disclaimer

   EN    FR    IT 

 










Sommario :    VFR   VFR Marginale   IFR   IFR Intensivo   IFR Molto Intensivo
Visibilità : 
Base nubi : 
>= 8 km
>= 3000ft
5 / 8 km
1000 / 3000 ft
1500m / 5 km
500 / 1000 ft
800 / 1500m
200 / 500 ft
< 800m
< 200 ft
Simboli :   Temporali  Nebbia  Neve Forte  Precipitazioni Forti  Vento > 20 kt
SIGMETs :   Varie  Temporali  Ghiacco  Turbolenza  Onda orograficha  Ceneri Vulcaniche







- Altitudine del aeroporto : 102 ft
- Codice IATA : CNG
- Carte del aeroporto


LFBG - Cognac

ULTIMO METAR :
  • 220730Z AUTO 09004KT CAVOK 05/02 Q1029 NOSIG

METARs OBSOLETI :
  • 220700Z AUTO 10004KT CAVOK 03/01 Q1028 NOSIG
  • 220630Z AUTO 10004KT 9000 NSC 01/M00 Q1028 NOSIG
  • 220600Z AUTO 08002KT CAVOK 02/M01 Q1028
  • 220530Z AUTO 05004KT 9000 NSC 02/00 Q1028
  • 220500Z AUTO 09003KT CAVOK 01/00 Q1028

TAF TAF LFBG
Valido dal 22 a 03 ore il 23 a 03 ore UTC


220200Z 2203/2303 VRB02KT CAVOK
Nessun NOTAM noto per questo aeroporto.



MetMap, La meteo Aeronautica in un colpo d'occhio ! - Copyright ORBIFLY Dicembre 2007 - Disclaimer

ORBIFLY MET'MAP TEAM :

Programmazione e sviluppo : Alexandra Zaïnal
Concezione e sviluppo : Baudouin d'Aumeries
Co-Programmazione e sviluppo : Marc-Olivier Méhu
Supporto tecnico e logistico : Manuel Goepfert
Aiuto per la traduzione : Arnaldo La Scala

Contatto : metmap@orbifly.com




FONTI E CREDITI :

   NOAA